Time;durP1;ratioP1;P1;durP2;ratioP2;P2;SDS_P1;SDS_P2;PMS_P1;PMS_P2;Temp;Humidity;BMP_temperature;BMP_pressure;BME280_temperature;BME280_humidity;BME280_pressure;Samples;Min_cycle;Max_cycle;Signal;HPM_P1;HPM_P2
2022/06/01 00:00:04;;;;;;;3.57;3.07;;;;;;;13.35;85.45;97933.72;5094579;28;20211;-75
2022/06/01 00:02:30;;;;;;;3.00;2.73;;;;;;;13.23;86.47;97924.13;5094073;28;20214;-75
2022/06/01 00:04:57;;;;;;;3.53;3.20;;;;;;;13.15;87.54;97923.91;5092754;28;20587;-75
2022/06/01 00:07:25;;;;;;;5.30;3.10;;;;;;;13.07;88.98;97923.72;5094883;28;20235;-75
2022/06/01 00:09:53;;;;;;;3.60;3.30;;;;;;;13.10;89.05;97926.09;5094027;28;20214;-75
2022/06/01 00:12:21;;;;;;;3.30;3.00;;;;;;;13.05;89.51;97921.19;5094105;28;20214;-75
2022/06/01 00:14:48;;;;;;;3.77;3.13;;;;;;;13.05;89.31;97925.63;5094236;28;20207;-75
2022/06/01 00:17:15;;;;;;;3.93;3.07;;;;;;;12.96;90.14;97916.63;5094782;28;20582;-75
2022/06/01 00:19:42;;;;;;;3.67;3.20;;;;;;;12.92;90.61;97924.94;5094109;28;20218;-75
2022/06/01 00:22:16;;;;;;;4.67;3.10;;;;;;;12.85;91.04;97935.19;5094216;28;20225;-75
2022/06/01 00:24:44;;;;;;;3.33;3.03;;;;;;;12.75;91.31;97923.66;5094148;28;20585;-75
2022/06/01 00:27:12;;;;;;;4.83;2.97;;;;;;;12.66;92.67;97919.09;5094388;28;20696;-75
2022/06/01 00:29:40;;;;;;;5.13;3.50;;;;;;;12.59;93.19;97928.50;5098046;28;20206;-75
2022/06/01 00:32:11;;;;;;;3.33;3.03;;;;;;;12.58;93.53;97931.25;5111494;28;20210;-75
2022/06/01 00:34:38;;;;;;;3.23;2.93;;;;;;;12.58;93.49;97939.22;5099074;28;20223;-75
2022/06/01 00:37:05;;;;;;;3.67;3.37;;;;;;;12.61;93.13;97941.66;5094575;28;20219;-77
2022/06/01 00:39:31;;;;;;;3.87;3.10;;;;;;;12.58;93.63;97937.44;5094130;28;20570;-75
2022/06/01 00:42:09;;;;;;;4.30;3.70;;;;;;;12.65;93.28;97932.50;5093479;28;20683;-76
2022/06/01 00:44:35;;;;;;;3.00;2.60;;;;;;;12.70;92.42;97923.19;5093522;28;20253;-75
2022/06/01 00:47:04;;;;;;;3.43;2.93;;;;;;;12.75;91.83;97933.41;5094337;28;20235;-75
2022/06/01 00:49:30;;;;;;;3.77;3.00;;;;;;;12.78;91.27;97938.47;5093889;28;20216;-75
2022/06/01 00:51:57;;;;;;;3.67;3.37;;;;;;;12.80;91.62;97941.84;5093834;28;20297;-75
2022/06/01 00:54:23;;;;;;;3.93;3.50;;;;;;;12.74;91.77;97945.00;5093812;28;20214;-77
2022/06/01 00:56:55;;;;;;;3.67;3.30;;;;;;;12.72;91.53;97944.28;5093720;28;20221;-76
2022/06/01 00:59:28;;;;;;;5.67;4.03;;;;;;;12.60;91.83;97950.56;5094259;28;20213;-75
2022/06/01 01:01:56;;;;;;;3.93;3.27;;;;;;;12.53;92.37;97946.72;5095106;28;20256;-76
2022/06/01 01:04:24;;;;;;;3.67;3.37;;;;;;;12.48;92.42;97946.25;5096809;28;20612;-76
2022/06/01 01:06:51;;;;;;;3.67;3.27;;;;;;;12.39;93.29;97944.31;5098603;28;20241;-76
2022/06/01 01:09:18;;;;;;;3.43;3.13;;;;;;;12.33;93.27;97955.38;5115740;28;20581;-76
2022/06/01 01:11:48;;;;;;;3.87;3.47;;;;;;;12.28;93.98;97944.34;5105011;28;20256;-76
2022/06/01 01:14:19;;;;;;;3.20;2.90;;;;;;;12.24;94.34;97942.88;5098390;28;20643;-76
2022/06/01 01:16:47;;;;;;;3.90;3.30;;;;;;;12.28;94.35;97933.75;5101887;28;20267;-76
2022/06/01 01:19:20;;;;;;;3.23;2.93;;;;;;;12.33;94.71;97936.84;5116973;28;20256;-75
2022/06/01 01:21:56;;;;;;;3.40;3.10;;;;;;;12.29;94.54;97935.41;5103199;28;20590;-75
2022/06/01 01:24:30;;;;;;;4.07;3.50;;;;;;;12.28;95.04;97941.69;5096477;28;20222;-76
2022/06/01 01:26:58;;;;;;;4.30;3.30;;;;;;;12.23;95.97;97930.59;5105403;28;20237;-76
2022/06/01 01:29:34;;;;;;;4.30;3.80;;;;;;;12.17;96.61;97942.50;5116419;28;20214;-76
2022/06/01 01:32:01;;;;;;;4.07;3.37;;;;;;;12.10;97.67;97935.19;5099600;28;20214;-77
2022/06/01 01:34:28;;;;;;;4.77;3.60;;;;;;;12.06;98.10;97945.19;5116126;28;20283;-77
2022/06/01 01:37:00;;;;;;;4.80;3.50;;;;;;;12.02;98.37;97940.22;5107954;28;20212;-76
2022/06/01 01:39:31;;;;;;;3.67;3.27;;;;;;;12.04;98.13;97940.97;5096919;28;20665;-76
2022/06/01 01:41:59;;;;;;;3.93;3.57;;;;;;;12.07;98.05;97938.91;5097466;28;20219;-76
2022/06/01 01:44:28;;;;;;;4.07;3.67;;;;;;;12.14;97.70;97941.91;5096816;28;20283;-76
2022/06/01 01:46:56;;;;;;;3.90;3.40;;;;;;;12.17;97.38;97931.91;5097001;28;20259;-78
2022/06/01 01:49:25;;;;;;;5.07;3.60;;;;;;;12.17;97.72;97942.50;5096268;28;20209;-76
2022/06/01 01:51:54;;;;;;;6.13;4.00;;;;;;;12.10;97.86;97935.19;5096720;28;20213;-76
2022/06/01 01:54:32;;;;;;;3.70;3.40;;;;;;;11.98;98.62;97941.44;5096796;28;20273;-77
2022/06/01 01:57:18;;;;;;;4.13;3.73;;;;;;;11.87;99.79;97944.06;5096466;28;20217;-76
2022/06/01 01:59:54;;;;;;;4.40;3.97;;;;;;;11.82;100.00;97940.94;5097396;28;20215;-76
2022/06/01 02:02:26;;;;;;;5.47;4.30;;;;;;;11.84;100.00;97946.94;5096536;28;20587;-76
2022/06/01 02:07:51;;;;;;;6.37;3.97;;;;;;;12.12;100.00;97943.84;5115131;28;20243;-76
2022/06/01 02:13:04;;;;;;;5.00;4.43;;;;;;;11.95;100.00;97947.81;5115300;28;20294;-76
2022/06/01 02:15:35;;;;;;;5.30;4.23;;;;;;;11.80;100.00;97940.22;5114329;28;20221;-76
2022/06/01 02:18:07;;;;;;;5.90;4.07;;;;;;;11.69;100.00;97940.19;5114097;28;20209;-76
2022/06/01 02:20:40;;;;;;;4.90;4.03;;;;;;;11.57;100.00;97941.91;5114681;28;20213;-76
2022/06/01 02:23:11;;;;;;;5.33;3.80;;;;;;;11.50;100.00;97937.22;5114797;28;20652;-76
2022/06/01 02:25:38;;;;;;;4.70;4.30;;;;;;;11.43;100.00;97943.94;5096058;28;20720;-76
2022/06/01 02:28:07;;;;;;;5.17;4.63;;;;;;;11.27;100.00;97938.09;5096247;28;20236;-76
2022/06/01 02:30:37;;;;;;;6.10;5.00;;;;;;;11.16;100.00;97935.41;5107611;28;20618;-76
2022/06/01 02:33:08;;;;;;;4.73;4.33;;;;;;;11.11;100.00;97932.25;5113607;28;20208;-76
2022/06/01 02:35:37;;;;;;;5.77;4.70;;;;;;;11.00;100.00;97942.81;5095865;28;20211;-77
2022/06/01 02:38:10;;;;;;;5.87;4.67;;;;;;;10.95;100.00;97937.84;5095965;28;20261;-77
2022/06/01 02:40:38;;;;;;;6.57;4.73;;;;;;;10.88;100.00;97931.31;5096016;28;20253;-77
2022/06/01 02:43:06;;;;;;;4.47;4.07;;;;;;;10.87;100.00;97936.72;5094678;28;20214;-75
2022/06/01 02:45:32;;;;;;;4.33;3.93;;;;;;;10.88;100.00;97930.50;5095685;28;20241;-75
2022/06/01 02:48:00;;;;;;;5.57;4.13;;;;;;;10.83;100.00;97938.75;5095777;28;20241;-75
2022/06/01 02:50:30;;;;;;;4.30;3.90;;;;;;;10.83;100.00;97935.28;5095718;28;20227;-75
2022/06/01 02:52:57;;;;;;;4.93;4.00;;;;;;;10.79;100.00;97941.72;5114279;28;20220;-76
2022/06/01 02:55:25;;;;;;;4.70;4.30;;;;;;;10.73;100.00;97943.03;5114676;28;20214;-75
2022/06/01 02:57:53;;;;;;;6.83;4.37;;;;;;;10.68;100.00;97944.31;5114579;28;20213;-76
2022/06/01 03:00:23;;;;;;;4.93;4.43;;;;;;;10.67;100.00;97930.25;5114538;28;20220;-76
2022/06/01 03:02:52;;;;;;;6.50;4.53;;;;;;;10.67;100.00;97942.63;5095678;28;20208;-77
2022/06/01 03:05:20;;;;;;;5.27;4.77;;;;;;;10.67;100.00;97937.34;5095246;28;20261;-76
2022/06/01 03:07:47;;;;;;;7.47;4.90;;;;;;;10.67;100.00;97942.63;5095371;28;20237;-77
2022/06/01 03:10:14;;;;;;;6.83;5.07;;;;;;;10.68;100.00;97933.72;5094382;28;20214;-75
2022/06/01 03:12:41;;;;;;;7.03;4.43;;;;;;;10.70;100.00;97937.13;5095492;28;20216;-76
2022/06/01 03:15:10;;;;;;;5.93;4.97;;;;;;;10.69;100.00;97933.63;5095011;28;20212;-76
2022/06/01 03:17:38;;;;;;;5.27;4.33;;;;;;;10.72;100.00;97938.72;5095317;28;20213;-76
2022/06/01 03:20:08;;;;;;;5.03;4.63;;;;;;;10.74;100.00;97938.56;5095768;28;20222;-76
2022/06/01 03:22:34;;;;;;;5.73;5.07;;;;;;;10.77;100.00;97939.19;5095311;28;20220;-76
2022/06/01 03:25:01;;;;;;;5.50;4.90;;;;;;;10.87;100.00;97939.34;5095125;28;20217;-76
2022/06/01 03:27:27;;;;;;;6.73;5.00;;;;;;;10.97;100.00;97935.09;5095013;28;20245;-76
2022/06/01 03:29:54;;;;;;;5.77;4.83;;;;;;;11.04;100.00;97938.97;5099804;28;20203;-76
2022/06/01 03:32:21;;;;;;;6.67;4.90;;;;;;;11.02;100.00;97932.97;5094244;28;20218;-77
2022/06/01 03:34:49;;;;;;;5.83;4.70;;;;;;;10.98;100.00;97939.41;5093277;28;20272;-76
2022/06/01 03:37:16;;;;;;;5.33;4.80;;;;;;;10.88;100.00;97941.06;5094876;28;20215;-76
2022/06/01 03:39:42;;;;;;;5.07;4.57;;;;;;;10.89;100.00;97937.47;5109962;28;20572;-77
2022/06/01 03:42:09;;;;;;;6.27;4.53;;;;;;;10.85;100.00;97941.28;5094624;28;20211;-77
2022/06/01 03:47:20;;;;;;;11.80;8.20;;;;;;;10.77;100.00;97949.75;5094828;28;20276;-76
2022/06/01 03:49:46;;;;;;;14.73;9.67;;;;;;;10.70;100.00;97947.69;5095305;28;20210;-77
2022/06/01 03:52:14;;;;;;;22.63;14.20;;;;;;;10.65;100.00;97949.81;5094245;28;20693;-75
2022/06/01 03:54:41;;;;;;;25.37;15.23;;;;;;;10.63;100.00;97949.94;5094624;28;20212;-76
2022/06/01 03:57:08;;;;;;;16.17;9.50;;;;;;;10.68;100.00;97945.16;5094288;28;20219;-75
2022/06/01 03:59:35;;;;;;;7.87;6.63;;;;;;;10.71;100.00;97942.28;5095188;28;20226;-76
2022/06/01 04:02:03;;;;;;;5.83;5.23;;;;;;;10.75;100.00;97945.53;5092887;28;20213;-76
2022/06/01 04:04:30;;;;;;;6.07;5.43;;;;;;;10.77;100.00;97948.94;5094178;28;20207;-77
2022/06/01 04:06:57;;;;;;;5.93;5.00;;;;;;;10.83;100.00;97949.31;5094417;28;20217;-77
2022/06/01 04:09:25;;;;;;;5.43;4.50;;;;;;;10.88;100.00;97955.13;5094990;28;20212;-77
2022/06/01 04:11:52;;;;;;;6.77;4.40;;;;;;;11.02;100.00;97959.41;5094303;28;20215;-77
2022/06/01 04:14:19;;;;;;;5.67;5.07;;;;;;;11.13;100.00;97957.63;5094460;28;20668;-77
2022/06/01 04:16:46;;;;;;;5.37;4.80;;;;;;;11.29;100.00;97957.34;5094218;28;20220;-77
2022/06/01 04:19:12;;;;;;;6.33;5.00;;;;;;;11.48;100.00;97962.94;5094719;28;20217;-76
2022/06/01 04:21:40;;;;;;;5.83;5.00;;;;;;;11.62;100.00;97958.31;5094192;28;20222;-76
2022/06/01 04:24:11;;;;;;;5.07;4.57;;;;;;;11.73;100.00;97957.53;5094120;28;20228;-76
2022/06/01 04:26:39;;;;;;;5.23;4.73;;;;;;;11.81;100.00;97952.47;5093751;28;20233;-76
2022/06/01 04:29:06;;;;;;;6.33;5.07;;;;;;;11.84;100.00;97957.53;5093359;28;20280;-76
2022/06/01 04:31:32;;;;;;;4.93;4.43;;;;;;;11.84;100.00;97955.75;5112006;28;20261;-76
2022/06/01 04:33:59;;;;;;;5.03;4.53;;;;;;;11.85;100.00;97949.47;5104198;28;20216;-76
2022/06/01 04:36:26;;;;;;;5.23;4.50;;;;;;;11.88;100.00;97953.69;5093897;28;20209;-76
2022/06/01 04:38:52;;;;;;;5.63;4.67;;;;;;;11.88;100.00;97956.34;5094193;28;20631;-77
2022/06/01 04:41:19;;;;;;;4.70;4.20;;;;;;;11.89;100.00;97956.22;5093536;28;20220;-77
2022/06/01 04:43:47;;;;;;;5.13;4.70;;;;;;;11.91;100.00;97950.78;5093465;28;20217;-76
2022/06/01 04:46:13;;;;;;;5.10;4.60;;;;;;;11.95;100.00;97957.53;5093464;28;20220;-77
2022/06/01 04:48:40;;;;;;;8.10;5.13;;;;;;;12.04;100.00;97949.72;5094253;28;20605;-77
2022/06/01 04:51:07;;;;;;;6.17;5.30;;;;;;;12.38;100.00;97948.78;5093639;28;20223;-77
2022/06/01 04:53:33;;;;;;;5.07;4.57;;;;;;;12.62;100.00;97949.47;5097476;28;20221;-77
2022/06/01 04:56:00;;;;;;;6.67;4.60;;;;;;;12.72;100.00;97953.06;5100698;28;20224;-76
2022/06/01 04:58:26;;;;;;;7.27;5.10;;;;;;;12.83;100.00;97957.53;5094586;28;20263;-76
2022/06/01 05:00:54;;;;;;;5.43;4.70;;;;;;;13.03;100.00;97956.78;5093296;28;20217;-77
2022/06/01 05:03:22;;;;;;;5.50;4.30;;;;;;;13.59;100.00;97952.91;5093566;28;20215;-77
2022/06/01 05:05:48;;;;;;;7.37;5.30;;;;;;;14.61;96.12;97938.66;5093547;28;20325;-77
2022/06/01 05:08:16;;;;;;;6.07;4.80;;;;;;;15.72;88.74;97949.72;5094105;28;20244;-76
2022/06/01 05:10:43;;;;;;;6.57;4.77;;;;;;;16.68;82.91;97941.28;5093667;28;20574;-78
2022/06/01 05:13:11;;;;;;;5.40;4.07;;;;;;;17.61;77.33;97938.13;5093243;28;20214;-78
2022/06/01 05:15:45;;;;;;;6.03;4.57;;;;;;;18.51;71.29;97931.44;5093118;28;20789;-78
2022/06/01 05:18:13;;;;;;;7.17;4.83;;;;;;;19.29;67.42;97941.78;5094088;28;20211;-77
2022/06/01 05:20:39;;;;;;;10.60;5.47;;;;;;;19.76;64.54;97939.31;5091650;28;20238;-79
2022/06/01 05:23:06;;;;;;;5.20;4.40;;;;;;;19.80;64.59;97938.00;5093200;28;20676;-77
2022/06/01 05:25:32;;;;;;;4.30;3.87;;;;;;;20.24;62.66;97934.75;5095295;28;20222;-77
2022/06/01 05:27:59;;;;;;;5.03;4.13;;;;;;;20.65;59.53;97939.03;5109999;28;20237;-78
2022/06/01 05:30:25;;;;;;;5.07;3.80;;;;;;;21.06;57.49;97937.88;5100298;28;20705;-77
2022/06/01 05:32:52;;;;;;;4.63;3.70;;;;;;;21.45;56.33;97937.81;5103299;28;20218;-79
2022/06/01 05:35:20;;;;;;;5.97;3.67;;;;;;;21.83;55.10;97932.31;5091678;28;20676;-78
2022/06/01 05:37:46;;;;;;;6.63;3.73;;;;;;;22.34;53.13;97934.22;5092709;28;20218;-78
2022/06/01 05:40:13;;;;;;;4.77;3.70;;;;;;;22.78;51.29;97940.50;5092079;28;20225;-78
2022/06/01 05:42:40;;;;;;;5.40;3.17;;;;;;;23.17;49.90;97935.63;5091908;28;20214;-78
2022/06/01 05:45:09;;;;;;;3.67;3.30;;;;;;;23.35;48.80;97937.94;5092062;28;20593;-78
2022/06/01 05:47:36;;;;;;;6.07;3.30;;;;;;;23.65;48.38;97934.91;5088898;28;20241;-77
2022/06/01 05:50:03;;;;;;;5.20;3.10;;;;;;;24.00;47.95;97939.44;5090145;28;20207;-78
2022/06/01 05:52:31;;;;;;;4.73;3.30;;;;;;;24.33;46.53;97940.53;5091121;28;20695;-76
2022/06/01 05:54:57;;;;;;;3.37;2.93;;;;;;;24.68;46.09;97933.34;5093706;28;20602;-76
2022/06/01 05:57:24;;;;;;;4.83;3.33;;;;;;;24.97;44.88;97933.91;5096344;28;20580;-76
2022/06/01 05:59:50;;;;;;;3.83;3.50;;;;;;;25.18;43.59;97936.50;5095603;28;20214;-74
2022/06/01 06:02:17;;;;;;;3.43;2.80;;;;;;;25.14;44.09;97926.28;5094247;28;20211;-75
2022/06/01 06:04:43;;;;;;;3.57;3.20;;;;;;;25.22;44.16;97937.78;5095427;28;20214;-76
2022/06/01 06:07:10;;;;;;;3.80;2.90;;;;;;;25.40;43.71;97934.53;5095420;28;20218;-77
2022/06/01 06:09:37;;;;;;;4.43;3.67;;;;;;;25.60;42.13;97938.97;5103577;28;20244;-77
2022/06/01 06:12:05;;;;;;;5.60;3.63;;;;;;;25.53;42.00;97934.59;5113054;28;20214;-77
2022/06/01 06:14:31;;;;;;;5.17;3.13;;;;;;;25.53;42.45;97946.22;5114019;28;20354;-77
2022/06/01 06:16:58;;;;;;;5.47;3.13;;;;;;;25.83;41.55;97952.97;5114300;28;20206;-77
2022/06/01 06:19:24;;;;;;;3.63;2.83;;;;;;;26.05;41.96;97962.63;5113474;28;20213;-77
2022/06/01 06:21:50;;;;;;;3.50;2.70;;;;;;;26.38;41.25;97958.03;5113777;28;20672;-77
2022/06/01 06:24:20;;;;;;;4.00;2.80;;;;;;;26.66;40.86;97955.13;5113787;28;20210;-77
2022/06/01 06:26:48;;;;;;;3.23;2.90;;;;;;;26.89;40.84;97956.31;5113451;28;20217;-77
2022/06/01 06:29:18;;;;;;;3.87;2.80;;;;;;;27.02;40.04;97950.88;5112666;28;20234;-77
2022/06/01 06:31:45;;;;;;;3.77;2.17;;;;;;;27.08;40.39;97944.59;5094679;28;20221;-77
2022/06/01 06:34:11;;;;;;;4.43;2.93;;;;;;;26.56;40.79;97949.28;5094465;28;20214;-76
2022/06/01 06:36:38;;;;;;;3.00;2.57;;;;;;;26.57;40.60;97957.22;5094585;28;20691;-77
2022/06/01 06:39:04;;;;;;;3.40;2.60;;;;;;;26.79;40.34;97950.50;5093917;28;20219;-77
2022/06/01 06:41:31;;;;;;;3.37;2.70;;;;;;;27.02;40.26;97940.03;5094301;28;20690;-77
2022/06/01 06:43:59;;;;;;;3.93;3.03;;;;;;;27.25;39.59;97951.22;5094457;28;20251;-76
2022/06/01 06:46:25;;;;;;;4.53;2.97;;;;;;;27.24;39.56;97951.47;5094683;28;20214;-77
2022/06/01 06:48:52;;;;;;;3.57;3.00;;;;;;;27.14;39.61;97944.56;5110223;28;20244;-78
2022/06/01 06:51:21;;;;;;;4.33;2.53;;;;;;;27.19;39.94;97946.66;5094332;28;20214;-77
2022/06/01 06:53:47;;;;;;;3.60;2.30;;;;;;;27.28;39.75;97940.78;5094524;28;20246;-77
2022/06/01 06:56:15;;;;;;;4.83;2.50;;;;;;;27.28;39.33;97945.38;5094432;28;20211;-77
2022/06/01 06:58:42;;;;;;;3.03;2.30;;;;;;;27.06;39.90;97946.69;5094723;28;20690;-76
2022/06/01 07:01:10;;;;;;;2.73;2.43;;;;;;;26.72;40.61;97938.84;5094600;28;20241;-77
2022/06/01 07:03:36;;;;;;;4.53;2.40;;;;;;;26.12;41.59;97936.38;5093885;28;20207;-76
2022/06/01 07:06:17;;;;;;;3.60;2.20;;;;;;;25.21;42.71;97944.22;5092646;28;20218;-77
2022/06/01 07:08:45;;;;;;;4.97;2.87;;;;;;;23.55;46.43;97950.63;5098436;28;20649;-78
2022/06/01 07:11:13;;;;;;;3.23;2.60;;;;;;;22.49;50.35;97945.88;5113140;28;20577;-76
2022/06/01 07:13:40;;;;;;;3.10;2.37;;;;;;;21.77;52.98;97949.19;5112864;28;20206;-78
2022/06/01 07:16:08;;;;;;;3.57;2.50;;;;;;;21.30;54.36;97943.13;5112659;28;20213;-76
2022/06/01 07:18:38;;;;;;;2.80;2.27;;;;;;;20.94;55.54;97954.56;5113009;28;20210;-76
2022/06/01 07:21:04;;;;;;;2.97;2.40;;;;;;;20.77;57.16;97948.38;5113028;28;20263;-76
2022/06/01 07:23:31;;;;;;;2.80;2.10;;;;;;;20.69;58.56;97944.88;5112805;28;20215;-76
2022/06/01 07:25:58;;;;;;;3.97;2.80;;;;;;;20.56;58.26;97945.44;5096847;28;20215;-76
2022/06/01 07:28:25;;;;;;;2.67;2.33;;;;;;;20.59;59.27;97945.09;5093646;28;20231;-76
2022/06/01 07:30:56;;;;;;;6.23;2.67;;;;;;;20.61;59.92;97948.44;5105889;28;20221;-76
2022/06/01 07:33:23;;;;;;;2.87;2.20;;;;;;;20.63;59.60;97941.06;5098101;28;20247;-76
2022/06/01 07:35:51;;;;;;;2.40;2.20;;;;;;;20.64;58.28;97945.41;5094228;28;20222;-76
2022/06/01 07:43:46;;;;;;;2.87;2.20;;;;;;;20.74;57.18;97943.38;5093813;28;20253;-76
2022/06/01 07:46:13;;;;;;;2.70;2.50;;;;;;;20.86;57.99;97957.25;5093126;28;20638;-76
2022/06/01 07:48:39;;;;;;;2.40;2.20;;;;;;;20.90;57.94;97954.06;5093010;28;20234;-76
2022/06/01 07:51:07;;;;;;;3.20;2.47;;;;;;;20.93;57.24;97953.72;5093490;28;20215;-76
2022/06/01 07:53:34;;;;;;;3.00;2.33;;;;;;;21.02;56.12;97949.97;5093687;28;20210;-75
2022/06/01 07:56:00;;;;;;;3.70;2.37;;;;;;;21.00;56.04;97946.66;5093324;28;20220;-76
2022/06/01 07:58:27;;;;;;;4.77;2.27;;;;;;;21.01;56.05;97945.63;5091491;28;20214;-76
2022/06/01 08:00:53;;;;;;;3.53;2.50;;;;;;;21.00;53.55;97946.66;5093052;28;20211;-75
2022/06/01 08:03:21;;;;;;;3.20;2.20;;;;;;;20.88;54.78;97945.34;5093615;28;20247;-76
2022/06/01 08:05:48;;;;;;;3.13;2.50;;;;;;;20.83;56.40;97941.47;5093410;28;20213;-76
2022/06/01 08:08:16;;;;;;;4.90;2.27;;;;;;;20.81;53.09;97930.06;5092817;28;20218;-76
2022/06/01 08:10:42;;;;;;;3.80;2.63;;;;;;;20.84;54.41;97938.63;5092863;28;20211;-76
2022/06/01 08:13:10;;;;;;;2.87;2.47;;;;;;;20.65;54.04;97939.03;5093584;28;20240;-76
2022/06/01 08:15:42;;;;;;;3.27;2.37;;;;;;;20.50;55.21;97934.53;5092898;28;20305;-76
2022/06/01 08:18:10;;;;;;;2.20;2.00;;;;;;;20.40;50.35;97932.06;5092495;28;20582;-76
2022/06/01 08:20:37;;;;;;;1.90;1.67;;;;;;;20.46;44.82;97931.38;5092819;28;20593;-71
2022/06/01 08:23:04;;;;;;;1.73;1.47;;;;;;;20.60;41.03;97925.28;5093800;28;20206;-71
2022/06/01 08:25:32;;;;;;;1.97;1.47;;;;;;;20.74;39.75;97916.50;5091130;28;20220;-71
2022/06/01 08:28:00;;;;;;;1.50;1.40;;;;;;;20.95;40.03;97905.16;5092924;28;20224;-71
2022/06/01 08:30:28;;;;;;;4.40;1.50;;;;;;;21.20;40.07;97918.31;5102481;28;20242;-72
2022/06/01 08:32:56;;;;;;;1.50;1.40;;;;;;;21.56;39.12;97916.72;5110716;28;20214;-72
2022/06/01 08:35:26;;;;;;;2.30;1.50;;;;;;;21.79;39.64;97914.91;5092596;28;20207;-72
2022/06/01 08:37:53;;;;;;;2.23;1.60;;;;;;;22.02;39.49;97921.09;5093532;28;20215;-72
2022/06/01 08:40:23;;;;;;;2.30;1.60;;;;;;;22.42;40.26;97911.72;5097960;28;20221;-73
2022/06/01 08:42:56;;;;;;;2.10;1.80;;;;;;;22.52;39.67;97915.88;5093248;28;20239;-73
2022/06/01 08:45:24;;;;;;;4.50;1.90;;;;;;;22.56;39.08;97917.16;5092692;28;20235;-73
2022/06/01 08:47:51;;;;;;;2.53;1.70;;;;;;;22.46;39.68;97924.69;5092440;28;20222;-72
2022/06/01 08:50:25;;;;;;;3.80;1.80;;;;;;;22.12;40.40;97943.19;5092378;28;20613;-72
2022/06/01 08:52:52;;;;;;;2.00;1.90;;;;;;;21.68;42.77;97947.59;5109501;28;20582;-76
2022/06/01 08:55:18;;;;;;;4.03;1.93;;;;;;;21.47;43.49;97954.59;5111440;28;20225;-76
2022/06/01 08:57:50;;;;;;;2.87;2.27;;;;;;;21.21;44.27;97962.97;5111356;28;20206;-76
2022/06/01 09:00:21;;;;;;;3.33;2.33;;;;;;;21.21;45.07;97956.78;5111166;28;20221;-77
2022/06/01 09:02:57;;;;;;;3.93;2.17;;;;;;;21.39;45.36;97960.88;5092474;28;20214;-77
2022/06/01 09:05:30;;;;;;;2.63;2.00;;;;;;;21.51;44.67;97954.06;5092349;28;20206;-77
2022/06/01 09:08:06;;;;;;;2.10;1.90;;;;;;;21.58;43.82;97955.03;5092550;28;20226;-76
2022/06/01 09:10:53;;;;;;;2.37;1.90;;;;;;;21.56;42.96;97957.06;5110544;28;20233;-77
2022/06/01 09:13:24;;;;;;;2.83;1.70;;;;;;;21.47;43.50;97968.88;5111355;28;20218;-78
2022/06/01 09:15:55;;;;;;;2.13;1.87;;;;;;;21.38;43.13;97975.31;5111045;28;20225;-76
2022/06/01 09:18:24;;;;;;;2.07;1.80;;;;;;;21.53;44.14;97962.78;5108813;28;20210;-76
2022/06/01 09:23:35;;;;;;;2.97;2.10;;;;;;;21.46;43.05;97979.84;5111337;28;20275;-77
2022/06/01 09:26:03;;;;;;;3.40;2.13;;;;;;;21.40;43.87;97967.91;5110091;28;20224;-77
2022/06/01 09:28:31;;;;;;;2.23;1.80;;;;;;;21.44;43.28;97974.63;5110650;28;20710;-79
2022/06/01 09:31:02;;;;;;;2.17;1.80;;;;;;;21.49;42.97;97966.88;5102080;28;20202;-78
2022/06/01 09:33:31;;;;;;;3.67;2.20;;;;;;;21.70;43.32;97964.38;5095716;28;20214;-76
2022/06/01 09:36:02;;;;;;;2.40;1.87;;;;;;;21.82;41.80;97962.94;5096365;28;20250;-76
2022/06/01 09:38:40;;;;;;;2.53;1.90;;;;;;;21.84;42.39;97960.94;5096011;28;20678;-77
2022/06/01 09:41:09;;;;;;;3.47;1.93;;;;;;;21.90;43.15;97953.97;5095934;28;20206;-76
2022/06/01 09:43:38;;;;;;;4.43;1.90;;;;;;;22.03;43.45;97964.97;5095103;28;20219;-76
2022/06/01 09:46:06;;;;;;;3.40;1.77;;;;;;;22.22;41.19;97959.91;5095583;28;20222;-73
2022/06/01 09:48:36;;;;;;;2.97;1.80;;;;;;;22.36;41.07;97966.38;5095729;28;20211;-73
2022/06/01 09:51:12;;;;;;;2.13;1.90;;;;;;;22.66;41.63;97973.47;5095911;28;20218;-73
2022/06/01 09:53:42;;;;;;;2.33;1.70;;;;;;;22.74;39.67;97970.69;5101431;28;20206;-72
2022/06/01 09:56:08;;;;;;;2.77;1.60;;;;;;;22.71;39.13;97963.81;5095614;28;20211;-76
2022/06/01 10:06:59;;;;;;;2.27;1.90;;;;;;;22.50;40.79;97966.38;5095271;28;20243;-77
2022/06/01 10:09:27;;;;;;;2.20;1.80;;;;;;;22.64;40.64;97968.28;5096195;28;20230;-77
2022/06/01 10:11:55;;;;;;;2.93;1.87;;;;;;;22.87;39.54;97958.22;5093689;28;20217;-77
2022/06/01 10:14:24;;;;;;;1.80;1.57;;;;;;;23.28;39.58;97956.72;5106180;28;20210;-77
2022/06/01 10:17:02;;;;;;;4.70;2.23;;;;;;;23.52;39.04;97969.88;5113900;28;20744;-77
2022/06/01 10:19:32;;;;;;;2.43;1.70;;;;;;;23.60;37.62;97964.34;5095111;28;20218;-77
2022/06/01 10:22:05;;;;;;;3.10;1.70;;;;;;;23.67;38.41;97954.47;5095130;28;20324;-77
2022/06/01 10:24:37;;;;;;;1.40;1.30;;;;;;;23.88;37.20;97959.03;5095085;28;20226;-76
2022/06/01 10:27:05;;;;;;;1.40;1.30;;;;;;;23.80;34.07;97957.31;5095682;28;20206;-76
2022/06/01 10:29:37;;;;;;;2.00;1.20;;;;;;;23.80;35.45;97960.00;5097235;28;20231;-76
2022/06/01 10:32:10;;;;;;;1.87;1.30;;;;;;;24.06;34.28;97956.72;5103133;28;20222;-75
2022/06/01 10:34:41;;;;;;;2.10;1.40;;;;;;;24.36;33.59;97959.06;5109868;28;20229;-76
2022/06/01 10:37:17;;;;;;;1.43;1.30;;;;;;;24.36;33.15;97950.97;5092843;28;20219;-76
2022/06/01 10:39:50;;;;;;;1.73;1.27;;;;;;;24.03;33.16;97955.25;5094002;28;20695;-76
2022/06/01 10:42:21;;;;;;;1.30;1.10;;;;;;;23.95;33.20;97949.19;5094384;28;20675;-76
2022/06/01 10:44:54;;;;;;;1.63;1.07;;;;;;;24.10;33.49;97949.91;5095384;28;20894;-76
2022/06/01 10:47:26;;;;;;;1.87;1.27;;;;;;;24.10;34.17;97952.63;5094509;28;20210;-77
2022/06/01 10:49:58;;;;;;;1.40;1.30;;;;;;;24.19;33.61;97949.59;5094674;28;20243;-77
2022/06/01 10:52:29;;;;;;;1.30;1.20;;;;;;;24.13;32.76;97955.75;5095181;28;20218;-77
2022/06/01 10:55:07;;;;;;;1.67;1.20;;;;;;;24.28;33.33;97953.81;5094539;28;20215;-76
2022/06/01 10:57:39;;;;;;;1.20;1.00;;;;;;;24.44;32.81;97947.28;5103765;28;20206;-77
2022/06/01 11:00:07;;;;;;;2.07;1.10;;;;;;;24.63;31.35;97955.53;5098770;28;20215;-77
2022/06/01 11:03:03;;;;;;;1.20;1.10;;;;;;;24.82;30.94;97957.53;5094441;28;20221;-77
2022/06/01 11:05:39;;;;;;;1.90;1.20;;;;;;;24.73;31.73;97949.78;5094514;28;20218;-77
2022/06/01 11:08:28;;;;;;;2.90;1.37;;;;;;;24.42;32.20;97950.19;5097109;28;20613;-76
2022/06/01 11:11:04;;;;;;;2.63;1.20;;;;;;;24.11;32.35;97952.44;5094038;28;20273;-77
2022/06/01 11:13:46;;;;;;;1.70;1.10;;;;;;;24.04;32.36;97948.00;5093765;28;20214;-76
2022/06/01 11:16:32;;;;;;;1.20;1.10;;;;;;;24.05;33.13;97952.34;5094213;28;20706;-77
2022/06/01 11:19:08;;;;;;;3.27;1.17;;;;;;;24.04;32.54;97950.69;5093988;28;20214;-73
2022/06/01 11:21:44;;;;;;;3.33;1.30;;;;;;;23.79;32.78;97947.53;5094091;28;20206;-72
2022/06/01 11:24:27;;;;;;;1.43;1.20;;;;;;;23.60;33.63;97942.75;5094402;28;20209;-73
2022/06/01 11:27:07;;;;;;;1.67;1.37;;;;;;;23.74;33.20;97941.03;5093451;28;20722;-71
2022/06/01 11:29:51;;;;;;;2.40;1.40;;;;;;;23.86;33.21;97944.88;5094378;28;20230;-72
2022/06/01 11:32:20;;;;;;;1.70;1.17;;;;;;;24.02;33.10;97941.97;5090268;28;20245;-71
2022/06/01 11:34:52;;;;;;;1.43;1.10;;;;;;;24.09;33.15;97938.28;5092702;28;20606;-71
2022/06/01 11:37:23;;;;;;;1.30;1.20;;;;;;;24.25;33.32;97943.41;5093035;28;20210;-70
2022/06/01 11:39:57;;;;;;;2.33;1.20;;;;;;;24.40;30.98;97946.84;5094086;28;20439;-71
2022/06/01 11:42:30;;;;;;;2.20;1.20;;;;;;;24.44;31.27;97947.28;5092549;28;20225;-72
2022/06/01 11:45:02;;;;;;;1.37;1.20;;;;;;;24.52;31.58;97936.31;5092148;28;20731;-72
2022/06/01 11:47:36;;;;;;;1.17;1.17;;;;;;;24.33;32.04;97939.72;5094154;28;20210;-72
2022/06/01 11:50:14;;;;;;;1.77;1.10;;;;;;;24.31;32.45;97941.78;5092970;28;20242;-71
2022/06/01 11:52:46;;;;;;;1.30;1.17;;;;;;;24.22;32.31;97938.41;5092344;28;20241;-72
2022/06/01 11:55:23;;;;;;;2.90;1.37;;;;;;;24.19;32.23;97936.06;5093374;28;20633;-71
2022/06/01 11:57:53;;;;;;;1.47;1.20;;;;;;;24.03;32.74;97933.66;5092249;28;20707;-71
2022/06/01 12:00:31;;;;;;;2.37;1.50;;;;;;;24.04;31.88;97940.75;5093445;28;20580;-71
2022/06/01 12:03:02;;;;;;;1.73;1.10;;;;;;;24.01;32.27;97935.72;5093583;28;20214;-71
2022/06/01 12:05:35;;;;;;;1.30;1.20;;;;;;;24.10;32.43;97934.56;5094012;28;20210;-71